createdAt,value
2023-01-17T00:01:59.225Z,-0.21
2023-01-17T00:05:32.849Z,-0.21
2023-01-17T00:09:12.234Z,-0.20
2023-01-17T00:12:28.556Z,0.14
2023-01-17T00:15:50.225Z,-0.14
2023-01-17T00:19:24.065Z,-0.04
2023-01-17T00:23:04.224Z,-0.08
2023-01-17T00:26:26.166Z,0.05
2023-01-17T00:29:41.266Z,-0.09
2023-01-17T00:33:03.158Z,-0.08
2023-01-17T00:36:25.166Z,-0.20
2023-01-17T00:39:40.291Z,-0.01
2023-01-17T00:43:20.234Z,-0.03
2023-01-17T00:47:00.169Z,-0.23
2023-01-17T00:50:40.219Z,-0.16
2023-01-17T00:54:20.216Z,-0.12
2023-01-17T00:57:54.061Z,0.13
2023-01-17T01:01:34.277Z,0.02
2023-01-17T01:05:14.184Z,0.09
2023-01-17T01:08:55.155Z,0.05
2023-01-17T01:12:35.224Z,-0.04
2023-01-17T01:16:08.699Z,0.14
2023-01-17T01:19:48.138Z,0.33
2023-01-17T01:23:29.151Z,0.14
2023-01-17T01:27:09.145Z,0.18
2023-01-17T01:30:49.154Z,0.34
2023-01-17T01:34:11.148Z,0.45
2023-01-17T01:37:26.333Z,0.16
2023-01-17T01:40:48.161Z,0.32
2023-01-17T01:44:03.471Z,0.43
2023-01-17T01:47:27.171Z,0.41
2023-01-17T01:50:50.142Z,0.35
2023-01-17T01:54:09.273Z,0.27
2023-01-17T01:57:33.153Z,0.37
2023-01-17T02:00:55.223Z,0.41
2023-01-17T02:04:11.018Z,0.46
2023-01-17T02:07:37.153Z,0.24
2023-01-17T02:10:52.372Z,0.37
2023-01-17T02:14:14.136Z,0.14
2023-01-17T02:17:54.189Z,0.40
2023-01-17T02:21:16.179Z,0.47
2023-01-17T02:24:34.169Z,0.26
2023-01-17T02:28:11.097Z,0.24
2023-01-17T02:31:36.323Z,0.21
2023-01-17T02:35:01.133Z,0.34
2023-01-17T02:38:23.119Z,0.29
2023-01-17T02:41:49.101Z,0.12
2023-01-17T02:45:11.121Z,0.28
2023-01-17T02:48:36.105Z,0.24
2023-01-17T02:51:51.322Z,0.30
2023-01-17T02:55:31.124Z,0.46
2023-01-17T02:58:59.124Z,0.59
2023-01-17T03:02:36.119Z,0.47
2023-01-17T03:06:06.076Z,0.46
2023-01-17T03:09:29.147Z,0.63
2023-01-17T03:12:45.185Z,0.61
2023-01-17T03:16:07.098Z,0.84
2023-01-17T03:19:29.131Z,0.61
2023-01-17T03:22:51.133Z,0.63
2023-01-17T03:26:13.107Z,0.76
2023-01-17T03:29:28.193Z,0.65
2023-01-17T03:32:50.079Z,0.63
2023-01-17T03:36:12.081Z,0.52
2023-01-17T03:39:34.015Z,0.54
2023-01-17T03:42:49.218Z,0.46
2023-01-17T03:46:14.101Z,0.68
2023-01-17T03:49:29.079Z,0.56
2023-01-17T03:52:51.041Z,0.48
2023-01-17T03:56:13.098Z,0.67
2023-01-17T03:59:35.102Z,0.54
2023-01-17T04:02:57.068Z,0.56
2023-01-17T04:06:12.144Z,0.50
2023-01-17T04:09:34.105Z,0.59
2023-01-17T04:12:49.188Z,0.50
2023-01-17T04:16:11.036Z,0.41
2023-01-17T04:19:33.065Z,0.47
2023-01-17T04:22:48.262Z,0.62
2023-01-17T04:26:10.057Z,0.80
2023-01-17T04:29:32.099Z,0.70
2023-01-17T04:32:47.178Z,0.79
2023-01-17T04:36:09.075Z,0.58
2023-01-17T04:39:24.160Z,0.71
2023-01-17T04:42:46.061Z,0.88
2023-01-17T04:46:09.051Z,0.92
2023-01-17T04:49:31.045Z,0.91
2023-01-17T04:52:46.199Z,0.70
2023-01-17T04:56:08.039Z,0.84
2023-01-17T04:59:23.083Z,0.81
2023-01-17T05:02:45.071Z,1.03
2023-01-17T05:06:00.159Z,0.69
2023-01-17T05:09:22.046Z,0.86
2023-01-17T05:12:43.967Z,0.89
2023-01-17T05:16:06.055Z,0.83
2023-01-17T05:19:28.013Z,0.72
2023-01-17T05:22:50.090Z,0.88
2023-01-17T05:26:12.019Z,0.80
2023-01-17T05:29:34.032Z,0.97
2023-01-17T05:32:55.992Z,0.88
2023-01-17T05:36:19.228Z,0.93
2023-01-17T05:39:43.034Z,1.14
2023-01-17T05:42:59.317Z,1.04
2023-01-17T05:46:23.141Z,1.08
2023-01-17T05:49:45.987Z,1.01
2023-01-17T05:53:02.125Z,1.10
2023-01-17T05:56:23.993Z,0.94
2023-01-17T05:59:39.095Z,1.11
2023-01-17T06:03:01.975Z,1.13
2023-01-17T06:06:17.153Z,1.08
2023-01-17T06:09:38.953Z,1.11
2023-01-17T06:13:01.044Z,0.95
2023-01-17T06:16:16.314Z,1.05
2023-01-17T06:19:37.992Z,1.06
2023-01-17T06:22:55.370Z,1.07
2023-01-17T06:26:17.004Z,0.94
2023-01-17T06:29:38.965Z,0.98
2023-01-17T06:33:09.999Z,0.48
2023-01-17T06:36:31.980Z,0.83
2023-01-17T06:39:53.951Z,0.94
2023-01-17T06:43:09.227Z,0.84
2023-01-17T06:46:31.020Z,1.05
2023-01-17T06:49:52.958Z,0.95
2023-01-17T06:53:10.081Z,0.75
2023-01-17T06:56:31.919Z,0.99
2023-01-17T06:59:47.523Z,0.94
2023-01-17T14:10:30.076Z,6.87
2023-01-17T14:13:45.460Z,6.86
2023-01-17T14:17:07.064Z,7.03
2023-01-17T14:20:25.323Z,7.07
2023-01-17T14:23:51.027Z,7.19
2023-01-17T14:27:22.049Z,7.06
2023-01-17T14:30:47.116Z,6.99
2023-01-17T14:34:19.080Z,6.84
2023-01-17T14:37:47.088Z,6.90
2023-01-17T14:41:14.017Z,7.10
2023-01-17T14:44:36.064Z,6.70
2023-01-17T14:47:52.742Z,6.86
2023-01-17T14:51:14.026Z,6.71
2023-01-17T14:54:29.584Z,6.58
2023-01-17T14:57:51.052Z,6.77
2023-01-17T15:01:33.177Z,6.78
2023-01-17T15:04:48.114Z,6.71
2023-01-17T15:08:10.003Z,6.58
2023-01-17T15:11:34.050Z,6.72
2023-01-17T15:14:56.023Z,6.77
2023-01-17T15:18:22.013Z,6.75
2023-01-17T15:21:47.008Z,6.70
2023-01-17T15:25:09.017Z,6.43
2023-01-17T15:28:24.733Z,6.45
2023-01-17T15:32:05.020Z,6.65
2023-01-17T15:35:20.629Z,6.61
2023-01-17T15:38:42.048Z,6.51
2023-01-17T15:42:12.044Z,6.50
2023-01-17T15:45:36.018Z,6.44
2023-01-17T15:48:58.009Z,6.57
2023-01-17T15:52:13.097Z,6.57
2023-01-17T15:55:38.071Z,6.28
2023-01-17T15:58:53.137Z,6.48
2023-01-17T16:02:32.066Z,6.20
2023-01-17T16:05:47.118Z,6.41
2023-01-17T16:09:11.035Z,6.48
2023-01-17T16:12:26.130Z,6.34
2023-01-17T16:15:48.078Z,6.10
2023-01-17T16:19:12.019Z,5.99
2023-01-17T16:22:33.991Z,5.94
2023-01-17T16:25:55.991Z,6.07
2023-01-17T16:29:11.208Z,6.09
2023-01-17T16:32:33.992Z,6.15
2023-01-17T16:35:57.969Z,6.20
2023-01-17T16:39:13.113Z,5.91
2023-01-17T16:42:34.991Z,5.83
2023-01-17T16:45:53.140Z,6.20
2023-01-17T16:49:14.964Z,6.28
2023-01-17T16:52:29.998Z,5.84
2023-01-17T16:55:51.999Z,5.80
2023-01-17T16:59:07.054Z,5.73
2023-01-17T17:02:29.965Z,5.44
2023-01-17T17:05:53.987Z,5.74
2023-01-17T17:09:15.971Z,5.31
2023-01-17T17:12:38.015Z,5.14
2023-01-17T17:16:00.060Z,5.46
2023-01-17T17:19:21.981Z,5.34
2023-01-17T17:22:43.982Z,5.37
2023-01-17T17:26:02.276Z,5.21
2023-01-17T17:29:23.946Z,5.04
2023-01-17T17:32:39.075Z,4.97
2023-01-17T17:36:00.922Z,4.95
2023-01-17T17:39:25.968Z,5.16
2023-01-17T17:42:42.424Z,4.85
2023-01-17T17:46:03.972Z,5.04
2023-01-17T17:49:26.916Z,4.90
2023-01-17T17:52:44.187Z,5.10
2023-01-17T17:56:09.967Z,5.04
2023-01-17T17:59:31.964Z,4.95
2023-01-17T18:02:53.923Z,4.87
2023-01-17T18:06:16.949Z,4.90
2023-01-17T18:09:38.951Z,4.68
2023-01-17T18:13:00.896Z,4.77
2023-01-17T18:16:23.966Z,4.81
2023-01-17T18:19:39.123Z,4.56
2023-01-17T18:23:00.900Z,4.42
2023-01-17T18:26:32.920Z,4.89
2023-01-17T18:29:55.981Z,4.71
2023-01-17T18:33:17.947Z,4.60
2023-01-17T18:36:34.836Z,4.65
2023-01-17T18:39:56.892Z,4.44
2023-01-17T18:43:12.092Z,4.43
2023-01-17T18:46:33.960Z,4.63
2023-01-17T18:49:59.868Z,4.14
2023-01-17T18:53:21.908Z,4.09
2023-01-17T18:56:43.939Z,4.32
2023-01-17T18:59:58.971Z,4.25
2023-01-17T19:03:20.946Z,4.19
2023-01-17T19:06:36.987Z,4.10
2023-01-17T19:09:58.933Z,4.18
2023-01-17T19:13:13.990Z,4.21
2023-01-17T19:16:37.009Z,4.34
2023-01-17T19:19:58.894Z,4.40
2023-01-17T19:23:14.186Z,4.62
2023-01-17T19:26:36.865Z,4.80
2023-01-17T19:29:52.099Z,5.51
2023-01-17T19:33:13.865Z,5.61
2023-01-17T19:36:37.856Z,4.73
2023-01-17T19:39:59.868Z,4.89
2023-01-17T19:43:21.957Z,5.19
2023-01-17T19:46:37.026Z,5.43
2023-01-17T19:49:58.884Z,5.87
2023-01-17T19:53:20.874Z,6.51
2023-01-17T19:56:42.876Z,6.65
2023-01-17T20:00:04.839Z,6.61
2023-01-17T20:03:22.070Z,6.90
2023-01-17T20:06:44.836Z,7.74
2023-01-17T20:10:06.888Z,7.96
2023-01-17T20:13:21.964Z,8.75
2023-01-17T20:16:43.891Z,8.82
2023-01-17T20:19:58.969Z,8.98
2023-01-17T20:23:20.852Z,9.27
2023-01-17T20:26:43.825Z,9.27
2023-01-17T20:30:08.165Z,9.19
2023-01-17T20:33:36.837Z,9.63
2023-01-17T20:37:00.855Z,9.39
2023-01-17T20:40:17.601Z,9.32
2023-01-17T20:43:39.809Z,9.39
2023-01-17T20:47:01.814Z,9.17
2023-01-17T20:50:17.163Z,9.55
2023-01-17T20:53:38.851Z,10.30
2023-01-17T20:56:55.316Z,10.11
2023-01-17T21:00:16.856Z,10.43
2023-01-17T21:03:33.800Z,9.87
2023-01-17T21:06:57.804Z,9.84
2023-01-17T21:10:19.817Z,10.35
2023-01-17T21:13:41.878Z,10.23
2023-01-17T21:17:03.853Z,10.00
2023-01-17T21:20:25.827Z,10.09
2023-01-17T21:23:48.794Z,10.52
2023-01-17T21:27:10.763Z,10.58
2023-01-17T21:30:26.038Z,10.54
2023-01-17T21:33:47.801Z,10.41
2023-01-17T21:37:09.761Z,10.39
2023-01-17T21:40:31.793Z,10.58
2023-01-17T21:43:53.808Z,10.64
2023-01-17T21:47:15.794Z,10.76
2023-01-17T21:50:33.644Z,10.51
2023-01-17T21:53:55.793Z,10.74
2023-01-17T21:57:36.826Z,10.66
2023-01-17T22:01:07.662Z,11.01
2023-01-17T22:04:29.753Z,10.93
2023-01-17T22:08:04.901Z,10.84
2023-01-17T22:11:27.735Z,10.71
2023-01-17T22:14:50.803Z,10.79
2023-01-17T22:18:06.233Z,10.92
2023-01-17T22:21:45.783Z,10.59
2023-01-17T22:25:07.782Z,10.56
2023-01-17T22:28:23.251Z,10.72
2023-01-17T22:31:44.757Z,10.65
2023-01-17T22:35:06.912Z,10.78
2023-01-17T22:38:22.027Z,10.97
2023-01-17T22:41:43.805Z,10.90
2023-01-17T22:44:58.983Z,11.02
2023-01-17T22:48:20.744Z,11.38
2023-01-17T22:51:42.738Z,11.40
2023-01-17T22:55:04.771Z,11.17
2023-01-17T22:58:26.724Z,11.06
2023-01-17T23:01:48.754Z,11.27
2023-01-17T23:05:03.999Z,11.26
2023-01-17T23:08:26.754Z,11.11
2023-01-17T23:11:56.728Z,11.49
2023-01-17T23:15:36.732Z,11.40
2023-01-17T23:19:10.617Z,11.33
2023-01-17T23:22:33.768Z,11.26
2023-01-17T23:25:48.907Z,11.28
2023-01-17T23:29:10.740Z,10.98
2023-01-17T23:32:32.784Z,11.02
2023-01-17T23:35:48.788Z,11.10
2023-01-17T23:39:10.731Z,11.39
2023-01-17T23:42:44.249Z,11.26
2023-01-17T23:46:05.707Z,11.28
2023-01-17T23:49:27.726Z,11.22
2023-01-17T23:52:42.896Z,11.24
2023-01-17T23:56:08.768Z,11.40
2023-01-17T23:59:30.709Z,11.39
